Aviation Digital Data Service (ADDS)

Output produced by METARs form (0630 UTC 02 August 2014)
found at http://aviationweather.gov/adds/metars/
 
METAR text: KSPB 020553Z AUTO 33006KT 10SM CLR 23/13 A2991 RMK AO2 SLP128 T02330133 10328 20233 53007
Conditions at: KSPB (SCAPPOOSE , OR, US) observed 0553 UTC 02 August 2014
Temperature: 23.3°C (74°F)
Dewpoint: 13.3°C (56°F) [RH = 53%]
Pressure (altimeter): 29.91 inches Hg (1013.0 mb)
[Sea-level pressure: 1012.8 mb]
Winds: from the NNW (330 degrees) at 7 MPH (6 knots; 3.1 m/s)
Visibility: 10 or more miles (16+ km)
Ceiling: at least 12,000 feet AGL
Clouds: sky clear below 12,000 feet AGL
Weather: automated observation with no human augmentation;
there may or may not be significant weather present at this time

METAR text: KSPB 020453Z AUTO 34008KT 10SM CLR 24/14 A2990 RMK AO2 SLP125 T02440144
Conditions at: KSPB (SCAPPOOSE , OR, US) observed 0453 UTC 02 August 2014
Temperature: 24.4°C (76°F)
Dewpoint: 14.4°C (58°F) [RH = 54%]
Pressure (altimeter): 29.90 inches Hg (1012.6 mb)
[Sea-level pressure: 1012.5 mb]
Winds: from the NNW (340 degrees) at 9 MPH (8 knots; 4.2 m/s)
Visibility: 10 or more miles (16+ km)
Ceiling: at least 12,000 feet AGL
Clouds: sky clear below 12,000 feet AGL
Weather: automated observation with no human augmentation;
there may or may not be significant weather present at this time